sensor_id;sensor_type;location;lat;lon;timestamp;P1;P2;P0
76045;PMS7003;64741;41.730;44.788;2022-12-08T00:04:51;5;4.4;2.8
76045;PMS7003;64741;41.730;44.788;2022-12-08T00:09:51;5.6;3.6;2.4
76045;PMS7003;64741;41.730;44.788;2022-12-08T00:14:49;3.8;3;2
76045;PMS7003;64741;41.730;44.788;2022-12-08T00:19:49;4.6;4.4;3.2
76045;PMS7003;64741;41.730;44.788;2022-12-08T00:24:49;4.4;2.8;2
76045;PMS7003;64741;41.730;44.788;2022-12-08T00:29:53;3.6;3;2.6
76045;PMS7003;64741;41.730;44.788;2022-12-08T00:34:55;3.6;2.8;1.8
76045;PMS7003;64741;41.730;44.788;2022-12-08T00:39:53;6;3.8;2.3
76045;PMS7003;64741;41.730;44.788;2022-12-08T00:44:49;4.4;3.6;2.6
76045;PMS7003;64741;41.730;44.788;2022-12-08T00:49:51;5.2;3.6;2.4
76045;PMS7003;64741;41.730;44.788;2022-12-08T00:54:49;4;3.6;2.2
76045;PMS7003;64741;41.730;44.788;2022-12-08T00:59:53;3.6;3.2;2.6
76045;PMS7003;64741;41.730;44.788;2022-12-08T01:04:51;4.4;3.4;2.6
76045;PMS7003;64741;41.730;44.788;2022-12-08T01:09:53;3.6;3;1.6
76045;PMS7003;64741;41.730;44.788;2022-12-08T01:14:55;4.4;3.2;2.6
76045;PMS7003;64741;41.730;44.788;2022-12-08T01:19:53;5;3.8;2.2
76045;PMS7003;64741;41.730;44.788;2022-12-08T01:24:57;4.6;3.6;2.4
76045;PMS7003;64741;41.730;44.788;2022-12-08T01:29:53;3.8;2.8;2.2
76045;PMS7003;64741;41.730;44.788;2022-12-08T01:34:53;4;3.4;2.6
76045;PMS7003;64741;41.730;44.788;2022-12-08T01:39:39;4.6;4;2.8
76045;PMS7003;64741;41.730;44.788;2022-12-08T01:44:56;4.2;3.4;2.4
76045;PMS7003;64741;41.730;44.788;2022-12-08T01:49:57;4.4;3;1.8
76045;PMS7003;64741;41.730;44.788;2022-12-08T01:54:56;4.4;3.6;2.4
76045;PMS7003;64741;41.730;44.788;2022-12-08T01:59:53;4.4;3;2
76045;PMS7003;64741;41.730;44.788;2022-12-08T02:04:55;3;2.8;2
76045;PMS7003;64741;41.730;44.788;2022-12-08T02:09:53;4.4;4;3
76045;PMS7003;64741;41.730;44.788;2022-12-08T02:14:13;3.6;2.8;1.6
76045;PMS7003;64741;41.730;44.788;2022-12-08T02:20:03;3.6;3.2;2.2
76045;PMS7003;64741;41.730;44.788;2022-12-08T02:24:58;4.2;3.6;2.2
76045;PMS7003;64741;41.730;44.788;2022-12-08T02:30:01;4;4;2.6
76045;PMS7003;64741;41.730;44.788;2022-12-08T02:34:54;3.8;2.8;2
76045;PMS7003;64741;41.730;44.788;2022-12-08T02:39:55;4.2;3.6;2.6
76045;PMS7003;64741;41.730;44.788;2022-12-08T02:44:44;3.6;3.2;2
76045;PMS7003;64741;41.730;44.788;2022-12-08T02:49:43;3.6;3.4;2.4
76045;PMS7003;64741;41.730;44.788;2022-12-08T02:55:00;3.4;3;1.6
76045;PMS7003;64741;41.730;44.788;2022-12-08T02:59:56;3.6;3.2;2
76045;PMS7003;64741;41.730;44.788;2022-12-08T03:04:57;4.2;3.6;2.4
76045;PMS7003;64741;41.730;44.788;2022-12-08T03:09:56;3.8;3.2;2
76045;PMS7003;64741;41.730;44.788;2022-12-08T03:14:58;3.6;2.4;1.4
76045;PMS7003;64741;41.730;44.788;2022-12-08T03:19:55;3.4;3;1.8
76045;PMS7003;64741;41.730;44.788;2022-12-08T03:24:55;3.4;2.8;1.8
76045;PMS7003;64741;41.730;44.788;2022-12-08T03:29:53;3;2.6;2
76045;PMS7003;64741;41.730;44.788;2022-12-08T03:34:55;3.2;2.6;1.6
76045;PMS7003;64741;41.730;44.788;2022-12-08T03:39:57;2.4;2;1.8
76045;PMS7003;64741;41.730;44.788;2022-12-08T03:44:57;4;2.8;1.2
76045;PMS7003;64741;41.730;44.788;2022-12-08T03:49:55;2.8;2.6;1.4
76045;PMS7003;64741;41.730;44.788;2022-12-08T03:54:55;3.8;2.6;1.4
76045;PMS7003;64741;41.730;44.788;2022-12-08T03:59:55;2.6;2;1.4
76045;PMS7003;64741;41.730;44.788;2022-12-08T04:04:57;3.4;2.6;1.8
76045;PMS7003;64741;41.730;44.788;2022-12-08T04:09:57;4;3.4;2.2
76045;PMS7003;64741;41.730;44.788;2022-12-08T04:14:55;2.6;2.2;1.4
76045;PMS7003;64741;41.730;44.788;2022-12-08T04:19:55;2.6;2;1.2
76045;PMS7003;64741;41.730;44.788;2022-12-08T04:24:55;3.6;2.8;1.6
76045;PMS7003;64741;41.730;44.788;2022-12-08T04:29:57;3.2;1.8;1.2
76045;PMS7003;64741;41.730;44.788;2022-12-08T04:34:55;2;1.8;1.2
76045;PMS7003;64741;41.730;44.788;2022-12-08T04:39:53;3.8;2.4;1.8
76045;PMS7003;64741;41.730;44.788;2022-12-08T04:44:53;2.8;2.4;1.6
76045;PMS7003;64741;41.730;44.788;2022-12-08T04:49:57;2.8;2.4;1.4
76045;PMS7003;64741;41.730;44.788;2022-12-08T04:54:57;3;2.4;1.4
76045;PMS7003;64741;41.730;44.788;2022-12-08T04:59:57;2.6;2;1
76045;PMS7003;64741;41.730;44.788;2022-12-08T05:04:55;3.2;2.6;1.6
76045;PMS7003;64741;41.730;44.788;2022-12-08T05:09:57;3.2;2.6;1.8
76045;PMS7003;64741;41.730;44.788;2022-12-08T05:14:57;3.6;2.2;1.4
76045;PMS7003;64741;41.730;44.788;2022-12-08T05:19:59;3;2.2;1.4
76045;PMS7003;64741;41.730;44.788;2022-12-08T05:25:01;2;1.6;0.8
76045;PMS7003;64741;41.730;44.788;2022-12-08T05:29:57;2;1.6;0.6
76045;PMS7003;64741;41.730;44.788;2022-12-08T05:34:57;3.6;1.6;1
76045;PMS7003;64741;41.730;44.788;2022-12-08T05:39:55;2.8;2.4;1.8
76045;PMS7003;64741;41.730;44.788;2022-12-08T05:44:53;2.2;2.2;1.4
76045;PMS7003;64741;41.730;44.788;2022-12-08T05:49:47;2.2;1.6;1
76045;PMS7003;64741;41.730;44.788;2022-12-08T05:54:45;2;1.3;0.5
76045;PMS7003;64741;41.730;44.788;2022-12-08T05:59:57;2.8;2.2;1
76045;PMS7003;64741;41.730;44.788;2022-12-08T06:04:59;2.2;2;0.8
76045;PMS7003;64741;41.730;44.788;2022-12-08T06:09:55;2.8;2;1.2
76045;PMS7003;64741;41.730;44.788;2022-12-08T06:14:35;2.8;2.4;1.8
76045;PMS7003;64741;41.730;44.788;2022-12-08T06:19:57;2.6;1.6;1
76045;PMS7003;64741;41.730;44.788;2022-12-08T06:24:57;4;2.6;1.2
76045;PMS7003;64741;41.730;44.788;2022-12-08T06:29:57;2.2;1.8;0.6
76045;PMS7003;64741;41.730;44.788;2022-12-08T06:34:57;3.6;2.2;1.6
76045;PMS7003;64741;41.730;44.788;2022-12-08T06:39:49;3.4;2.2;1.4
76045;PMS7003;64741;41.730;44.788;2022-12-08T06:44:55;2.8;2.8;1.6
76045;PMS7003;64741;41.730;44.788;2022-12-08T06:49:57;3.4;2;1.2
76045;PMS7003;64741;41.730;44.788;2022-12-08T06:54:55;4.2;2.6;1.8
76045;PMS7003;64741;41.730;44.788;2022-12-08T06:59:53;2.8;2.6;2
76045;PMS7003;64741;41.730;44.788;2022-12-08T07:04:53;2.6;2.2;1.2
76045;PMS7003;64741;41.730;44.788;2022-12-08T07:09:53;3.4;2.2;1.2
76045;PMS7003;64741;41.730;44.788;2022-12-08T07:14:53;2.4;2;1.2
76045;PMS7003;64741;41.730;44.788;2022-12-08T07:19:53;3.4;2;1
76045;PMS7003;64741;41.730;44.788;2022-12-08T07:24:53;2;1.8;1
76045;PMS7003;64741;41.730;44.788;2022-12-08T07:29:57;1.2;1.2;0.6
76045;PMS7003;64741;41.730;44.788;2022-12-08T07:34:55;2.8;1.8;1.2
76045;PMS7003;64741;41.730;44.788;2022-12-08T07:39:43;1.8;1.6;0.8
76045;PMS7003;64741;41.730;44.788;2022-12-08T07:44:53;3.2;1.4;1.2
76045;PMS7003;64741;41.730;44.788;2022-12-08T07:49:53;2;1.6;1
76045;PMS7003;64741;41.730;44.788;2022-12-08T07:54:57;2.4;2.2;1.2
76045;PMS7003;64741;41.730;44.788;2022-12-08T07:59:55;2.2;1.6;1
76045;PMS7003;64741;41.730;44.788;2022-12-08T08:04:57;2.4;1.6;0.8
76045;PMS7003;64741;41.730;44.788;2022-12-08T08:09:55;2.6;1.8;1.2
76045;PMS7003;64741;41.730;44.788;2022-12-08T08:14:55;2.4;2;1.2
76045;PMS7003;64741;41.730;44.788;2022-12-08T08:19:55;1.8;1.8;1.2
76045;PMS7003;64741;41.730;44.788;2022-12-08T08:24:55;2.6;2;0.8
76045;PMS7003;64741;41.730;44.788;2022-12-08T08:29:55;1.4;1.4;1
76045;PMS7003;64741;41.730;44.788;2022-12-08T08:34:53;4.2;3.4;2.4
76045;PMS7003;64741;41.730;44.788;2022-12-08T08:39:53;15.2;12.4;8.6
76045;PMS7003;64741;41.730;44.788;2022-12-08T08:44:55;29.2;24;15.6
76045;PMS7003;64741;41.730;44.788;2022-12-08T08:49:55;34.2;29;18.4
76045;PMS7003;64741;41.730;44.788;2022-12-08T08:54:55;37.2;29;19
76045;PMS7003;64741;41.730;44.788;2022-12-08T08:59:53;39.4;30.8;20.8
76045;PMS7003;64741;41.730;44.788;2022-12-08T09:04:31;36.6;30;20
76045;PMS7003;64741;41.730;44.788;2022-12-08T09:09:57;39.2;31.8;20.6
76045;PMS7003;64741;41.730;44.788;2022-12-08T09:14:55;42.6;33.8;22.6
76045;PMS7003;64741;41.730;44.788;2022-12-08T09:19:57;41.8;32.2;21.2
76045;PMS7003;64741;41.730;44.788;2022-12-08T09:24:53;39.2;32;21.4
76045;PMS7003;64741;41.730;44.788;2022-12-08T09:29:55;37.8;31;20.6
76045;PMS7003;64741;41.730;44.788;2022-12-08T09:34:55;35.2;28.4;19.6
76045;PMS7003;64741;41.730;44.788;2022-12-08T09:39:43;36.2;29.2;20.2
76045;PMS7003;64741;41.730;44.788;2022-12-08T09:44:52;33.2;28.6;19.2
76045;PMS7003;64741;41.730;44.788;2022-12-08T09:49:55;32.2;27;19
76045;PMS7003;64741;41.730;44.788;2022-12-08T09:54:55;31.6;27.6;19.2
76045;PMS7003;64741;41.730;44.788;2022-12-08T09:59:56;31.8;25.8;17.6
76045;PMS7003;64741;41.730;44.788;2022-12-08T10:04:56;29.6;25.2;17.6
76045;PMS7003;64741;41.730;44.788;2022-12-08T10:09:55;28;23.2;15.8
76045;PMS7003;64741;41.730;44.788;2022-12-08T10:14:52;27.6;23.2;16.2
76045;PMS7003;64741;41.730;44.788;2022-12-08T10:19:53;25.6;20.2;13.8
76045;PMS7003;64741;41.730;44.788;2022-12-08T10:24:56;25.4;21.2;15.2
76045;PMS7003;64741;41.730;44.788;2022-12-08T10:29:53;23;20.2;13.4
76045;PMS7003;64741;41.730;44.788;2022-12-08T10:35:00;23.8;19.4;12.6
76045;PMS7003;64741;41.730;44.788;2022-12-08T10:39:58;23.2;18.8;13
76045;PMS7003;64741;41.730;44.788;2022-12-08T10:44:57;21.4;18.6;13
76045;PMS7003;64741;41.730;44.788;2022-12-08T10:49:43;19.6;17.4;11.6
76045;PMS7003;64741;41.730;44.788;2022-12-08T10:54:55;19.2;16.6;12.2
76045;PMS7003;64741;41.730;44.788;2022-12-08T10:59:57;18.6;15.8;12.2
76045;PMS7003;64741;41.730;44.788;2022-12-08T11:04:45;18.8;17.5;12.5
76045;PMS7003;64741;41.730;44.788;2022-12-08T11:09:54;19;16.4;11
76045;PMS7003;64741;41.730;44.788;2022-12-08T11:14:54;18.6;15;10.6
76045;PMS7003;64741;41.730;44.788;2022-12-08T11:19:55;17;14.6;10
76045;PMS7003;64741;41.730;44.788;2022-12-08T11:24:58;15;13;8.8
76045;PMS7003;64741;41.730;44.788;2022-12-08T11:29:51;16.8;14.4;10.2
76045;PMS7003;64741;41.730;44.788;2022-12-08T11:34:56;15.4;12.2;9
76045;PMS7003;64741;41.730;44.788;2022-12-08T11:39:54;15.6;11.4;8
76045;PMS7003;64741;41.730;44.788;2022-12-08T11:44:54;13.2;10.8;7.2
76045;PMS7003;64741;41.730;44.788;2022-12-08T11:49:54;13.2;11.4;8.2
76045;PMS7003;64741;41.730;44.788;2022-12-08T11:54:56;12.2;10.8;7.6
76045;PMS7003;64741;41.730;44.788;2022-12-08T11:59:55;12.6;10.8;7.6
76045;PMS7003;64741;41.730;44.788;2022-12-08T12:04:54;10.2;7.4;5
76045;PMS7003;64741;41.730;44.788;2022-12-08T12:09:57;10.2;8.8;6.2
76045;PMS7003;64741;41.730;44.788;2022-12-08T12:15:00;11.6;9.4;6.2
76045;PMS7003;64741;41.730;44.788;2022-12-08T12:19:58;10.6;8.6;5.6
76045;PMS7003;64741;41.730;44.788;2022-12-08T12:24:55;9.4;7.2;5.2
76045;PMS7003;64741;41.730;44.788;2022-12-08T12:29:56;10;8.2;5.4
76045;PMS7003;64741;41.730;44.788;2022-12-08T12:34:56;10.2;7.8;5.2
76045;PMS7003;64741;41.730;44.788;2022-12-08T12:40:00;7.6;7.2;5.4
76045;PMS7003;64741;41.730;44.788;2022-12-08T12:44:57;8.4;6.4;5
76045;PMS7003;64741;41.730;44.788;2022-12-08T12:50:05;10.4;8;5.2
76045;PMS7003;64741;41.730;44.788;2022-12-08T12:55:59;9.2;6.8;5
76045;PMS7003;64741;41.730;44.788;2022-12-08T13:00:05;9.6;8.6;5.2
76045;PMS7003;64741;41.730;44.788;2022-12-08T13:04:56;7.4;6.8;4.8
76045;PMS7003;64741;41.730;44.788;2022-12-08T13:09:58;7.6;6.2;4.6
76045;PMS7003;64741;41.730;44.788;2022-12-08T13:14:58;9.6;8.2;5.8
76045;PMS7003;64741;41.730;44.788;2022-12-08T13:19:41;10.4;8.4;6.2
76045;PMS7003;64741;41.730;44.788;2022-12-08T13:24:51;11.2;9.2;6
76045;PMS7003;64741;41.730;44.788;2022-12-08T13:30:32;11.8;10.4;7
76045;PMS7003;64741;41.730;44.788;2022-12-08T13:34:44;13.2;11.6;8.8
76045;PMS7003;64741;41.730;44.788;2022-12-08T13:39:54;15.4;13.6;10
76045;PMS7003;64741;41.730;44.788;2022-12-08T13:44:54;18.6;15.6;10.6
76045;PMS7003;64741;41.730;44.788;2022-12-08T13:49:59;19.6;16.8;12.2
76045;PMS7003;64741;41.730;44.788;2022-12-08T13:54:55;22.6;19;13.6
76045;PMS7003;64741;41.730;44.788;2022-12-08T13:59:53;32;26.2;17.4
76045;PMS7003;64741;41.730;44.788;2022-12-08T14:04:53;32.6;29.2;20.6
76045;PMS7003;64741;41.730;44.788;2022-12-08T14:09:53;38.8;32;22.8
76045;PMS7003;64741;41.730;44.788;2022-12-08T14:14:55;43.6;34.6;24.6
76045;PMS7003;64741;41.730;44.788;2022-12-08T14:19:56;42.6;34.4;25
76045;PMS7003;64741;41.730;44.788;2022-12-08T14:24:57;43.4;34;24.6
76045;PMS7003;64741;41.730;44.788;2022-12-08T14:29:54;44.8;35.4;24.6
76045;PMS7003;64741;41.730;44.788;2022-12-08T14:34:55;40;33.4;23.8
76045;PMS7003;64741;41.730;44.788;2022-12-08T14:39:56;38.2;32.2;22.6
76045;PMS7003;64741;41.730;44.788;2022-12-08T14:44:54;39;33;23.2
76045;PMS7003;64741;41.730;44.788;2022-12-08T14:49:57;39.8;33;22.8
76045;PMS7003;64741;41.730;44.788;2022-12-08T14:54:55;35.8;30.8;22.2
76045;PMS7003;64741;41.730;44.788;2022-12-08T15:00:04;37.8;31.8;22.6
76045;PMS7003;64741;41.730;44.788;2022-12-08T15:04:56;36.8;31.4;22
76045;PMS7003;64741;41.730;44.788;2022-12-08T15:10:06;31;28.2;20.4
76045;PMS7003;64741;41.730;44.788;2022-12-08T15:14:56;33.4;28.8;20.8
76045;PMS7003;64741;41.730;44.788;2022-12-08T15:19:56;31.4;26.2;18.6
76045;PMS7003;64741;41.730;44.788;2022-12-08T15:24:55;31.6;26.6;19.2
76045;PMS7003;64741;41.730;44.788;2022-12-08T15:29:53;30.5;26.5;19.5
